createdAt,value
2018-06-04T00:00:51.855Z,8.33
2018-06-04T00:03:20.130Z,7.67
2018-06-04T00:05:48.551Z,8.73
2018-06-04T00:08:16.993Z,9.53
2018-06-04T00:10:45.365Z,7.07
2018-06-04T00:13:13.578Z,10.23
2018-06-04T00:15:41.822Z,7.73
2018-06-04T00:18:10.089Z,7.10
2018-06-04T00:20:38.518Z,7.47
2018-06-04T00:23:06.763Z,7.50
2018-06-04T00:25:35.149Z,10.63
2018-06-04T00:28:03.443Z,10.97
2018-06-04T00:30:31.885Z,7.43
2018-06-04T00:33:00.175Z,7.40
2018-06-04T00:35:29.257Z,7.20
2018-06-04T00:37:57.638Z,7.23
2018-06-04T00:40:25.961Z,8.10
2018-06-04T00:42:54.202Z,7.83
2018-06-04T00:45:22.475Z,8.30
2018-06-04T00:47:50.789Z,7.77
2018-06-04T00:50:20.123Z,10.17
2018-06-04T00:52:48.333Z,9.33
2018-06-04T00:55:16.541Z,8.53
2018-06-04T00:57:44.890Z,7.60
2018-06-04T01:00:13.074Z,7.60
2018-06-04T01:02:41.486Z,7.57
2018-06-04T01:05:09.707Z,7.30
2018-06-04T01:07:37.977Z,7.30
2018-06-04T01:10:06.195Z,7.50
2018-06-04T01:12:34.434Z,7.40
2018-06-04T01:15:02.613Z,7.50
2018-06-04T01:17:31.005Z,7.97
2018-06-04T01:19:59.222Z,7.37
2018-06-04T01:22:27.737Z,8.27
2018-06-04T01:24:56.307Z,8.10
2018-06-04T01:27:24.543Z,7.33
2018-06-04T01:29:53.545Z,7.03
2018-06-04T01:32:21.882Z,8.03
2018-06-04T01:34:50.102Z,7.27
2018-06-04T01:37:18.438Z,7.37
2018-06-04T01:39:46.600Z,7.57
2018-06-04T01:42:14.930Z,8.10
2018-06-04T01:44:43.167Z,8.43
2018-06-04T01:47:11.450Z,9.53
2018-06-04T01:49:40.382Z,8.07
2018-06-04T01:52:08.506Z,9.57
2018-06-04T01:54:36.693Z,8.00
2018-06-04T01:57:05.120Z,10.87
2018-06-04T01:59:33.680Z,8.50
2018-06-04T02:02:01.915Z,8.60
2018-06-04T02:04:30.137Z,11.40
2018-06-04T02:06:58.261Z,7.93
2018-06-04T02:09:27.313Z,8.57
2018-06-04T02:11:55.578Z,8.23
2018-06-04T02:14:23.922Z,8.07
2018-06-04T02:16:52.094Z,8.73
2018-06-04T02:19:20.432Z,8.27
2018-06-04T02:21:48.755Z,8.43
2018-06-04T02:24:17.025Z,8.47
2018-06-04T02:26:45.348Z,9.10
2018-06-04T02:29:13.490Z,10.40
2018-06-04T02:31:41.873Z,10.43
2018-06-04T02:34:10.270Z,9.23
2018-06-04T02:36:38.515Z,8.67
2018-06-04T02:39:07.507Z,10.63
2018-06-04T02:41:35.821Z,10.63
2018-06-04T02:44:04.162Z,9.93
2018-06-04T02:46:32.445Z,10.47
2018-06-04T02:49:00.767Z,10.40
2018-06-04T02:51:28.996Z,9.53
2018-06-04T02:53:57.270Z,8.97
2018-06-04T02:56:25.530Z,9.60
2018-06-04T02:58:53.830Z,9.67
2018-06-04T03:01:22.211Z,9.17
2018-06-04T03:03:50.625Z,13.37
2018-06-04T03:06:18.957Z,8.90
2018-06-04T03:08:47.053Z,10.57
2018-06-04T03:11:15.447Z,11.27
2018-06-04T03:13:43.798Z,10.80
2018-06-04T03:16:11.959Z,12.00
2018-06-04T03:18:40.159Z,12.73
2018-06-04T03:21:08.323Z,15.63
2018-06-04T03:23:36.624Z,12.90
2018-06-04T03:26:05.081Z,14.90
2018-06-04T03:28:33.353Z,12.50
2018-06-04T03:31:01.642Z,13.30
2018-06-04T03:33:29.906Z,15.80
2018-06-04T03:35:58.069Z,21.03
2018-06-04T03:38:26.303Z,14.53
2018-06-04T03:40:54.632Z,21.20
2018-06-04T03:43:22.922Z,18.20
2018-06-04T03:45:51.228Z,22.70
2018-06-04T03:48:19.595Z,21.30
2018-06-04T03:50:47.833Z,28.17
2018-06-04T03:53:16.150Z,21.97
2018-06-04T03:55:44.398Z,16.93
2018-06-04T03:58:13.026Z,22.03
2018-06-04T04:00:41.362Z,17.73
2018-06-04T04:03:09.733Z,21.63
2018-06-04T04:05:38.071Z,18.80
2018-06-04T04:08:06.286Z,21.07
2018-06-04T04:10:34.566Z,16.93
2018-06-04T04:13:02.883Z,21.13
2018-06-04T04:15:31.105Z,18.87
2018-06-04T04:17:59.397Z,17.70
2018-06-04T04:20:28.025Z,17.27
2018-06-04T04:22:56.379Z,18.47
2018-06-04T04:25:24.565Z,20.37
2018-06-04T04:27:52.958Z,14.57
2018-06-04T04:30:21.181Z,56.47
2018-06-04T04:32:49.452Z,25.80
2018-06-04T04:35:17.671Z,19.80
2018-06-04T04:37:46.145Z,22.87
2018-06-04T04:40:15.422Z,21.23
2018-06-04T04:42:43.631Z,20.17
2018-06-04T04:45:11.978Z,15.47
2018-06-04T04:47:40.285Z,17.80
2018-06-04T04:50:08.665Z,18.07
2018-06-04T04:52:37.233Z,20.97
2018-06-04T04:55:05.482Z,18.90
2018-06-04T04:57:34.016Z,17.47
2018-06-04T05:00:02.250Z,17.80
2018-06-04T05:02:30.418Z,20.63
2018-06-04T05:04:58.610Z,25.33
2018-06-04T05:07:26.869Z,18.43
2018-06-04T05:09:55.938Z,23.27
2018-06-04T05:12:24.562Z,18.87
2018-06-04T05:14:52.854Z,19.17
2018-06-04T05:17:21.312Z,19.73
2018-06-04T05:19:49.599Z,17.07
2018-06-04T05:22:18.025Z,19.33
2018-06-04T05:24:46.462Z,17.87
2018-06-04T05:27:14.745Z,16.50
2018-06-04T05:29:43.025Z,19.40
2018-06-04T05:32:11.290Z,18.50
2018-06-04T05:34:39.371Z,17.30
2018-06-04T05:37:07.682Z,31.30
2018-06-04T05:39:36.122Z,22.17
2018-06-04T05:42:04.514Z,20.63
2018-06-04T05:44:32.777Z,17.73
2018-06-04T05:47:01.145Z,16.70
2018-06-04T05:49:30.258Z,17.63
2018-06-04T05:51:58.516Z,16.20
2018-06-04T05:54:27.090Z,14.30
2018-06-04T05:56:55.329Z,15.60
2018-06-04T05:59:23.693Z,15.43
2018-06-04T06:01:52.265Z,15.17
2018-06-04T06:04:20.662Z,15.97
2018-06-04T06:06:48.906Z,16.00
2018-06-04T06:09:17.362Z,16.33
2018-06-04T06:11:45.998Z,14.33
2018-06-04T06:14:14.393Z,17.43
2018-06-04T06:16:42.518Z,14.90
2018-06-04T06:19:11.009Z,16.73
2018-06-04T06:21:39.281Z,12.63
2018-06-04T06:24:07.761Z,13.23
2018-06-04T06:26:36.158Z,12.47
2018-06-04T06:29:05.292Z,13.80
2018-06-04T06:31:33.618Z,12.87
2018-06-04T06:34:01.898Z,16.00
2018-06-04T06:36:30.274Z,13.47
2018-06-04T06:38:58.542Z,16.07
2018-06-04T06:41:26.829Z,12.20
2018-06-04T06:43:55.297Z,10.97
2018-06-04T06:46:23.690Z,12.17
2018-06-04T06:48:52.305Z,11.33
2018-06-04T06:51:20.553Z,11.90
2018-06-04T06:53:48.857Z,11.13
2018-06-04T06:56:17.210Z,13.93
2018-06-04T06:58:46.201Z,13.27
2018-06-04T07:01:14.853Z,14.40
2018-06-04T07:03:43.058Z,11.43
2018-06-04T07:06:11.443Z,12.10
2018-06-04T07:08:39.719Z,11.40
2018-06-04T07:11:07.998Z,12.03
2018-06-04T07:13:36.576Z,11.60
2018-06-04T07:16:04.953Z,12.37
2018-06-04T07:18:54.763Z,12.20
2018-06-04T07:21:44.682Z,11.07
2018-06-04T07:25:25.833Z,11.27
2018-06-04T07:29:20.053Z,11.87
2018-06-04T07:32:34.773Z,15.20
2018-06-04T07:35:11.608Z,11.23
2018-06-04T07:37:46.437Z,8.67
2018-06-04T07:40:14.714Z,9.63
2018-06-04T07:42:43.028Z,10.77
2018-06-04T07:45:11.365Z,10.43
2018-06-04T07:47:39.658Z,16.93
2018-06-04T07:50:08.235Z,10.70
2018-06-04T07:52:36.636Z,8.90
2018-06-04T07:55:05.030Z,8.83
2018-06-04T07:57:33.366Z,12.73
2018-06-04T08:00:01.534Z,10.60
2018-06-04T08:02:29.831Z,9.30
2018-06-04T08:04:58.161Z,14.33
2018-06-04T08:07:26.526Z,9.97
2018-06-04T08:09:54.982Z,12.00
2018-06-04T08:12:23.574Z,9.53
2018-06-04T08:14:52.033Z,9.77
2018-06-04T08:17:20.285Z,11.90
2018-06-04T08:19:48.821Z,11.27
2018-06-04T08:22:17.069Z,9.63
2018-06-04T08:24:45.326Z,10.37
2018-06-04T08:27:13.610Z,10.23
2018-06-04T08:29:41.873Z,10.47
2018-06-04T08:32:10.272Z,7.93
2018-06-04T08:34:38.766Z,8.00
2018-06-04T08:37:06.935Z,14.40
2018-06-04T08:39:35.510Z,8.77
2018-06-04T08:42:04.102Z,9.63
2018-06-04T08:44:32.646Z,8.20
2018-06-04T08:47:13.254Z,10.10
2018-06-04T08:49:45.509Z,8.63
2018-06-04T08:52:13.683Z,7.90
2018-06-04T08:54:41.849Z,8.87
2018-06-04T08:57:10.317Z,8.87
2018-06-04T08:59:38.830Z,8.10
2018-06-04T09:02:06.978Z,8.53
2018-06-04T09:04:35.257Z,8.37
2018-06-04T09:07:03.733Z,7.43
2018-06-04T09:09:32.256Z,7.60
2018-06-04T09:12:00.686Z,7.63
2018-06-04T09:14:28.985Z,9.17
2018-06-04T09:16:58.314Z,19.03
2018-06-04T09:19:26.557Z,12.50
2018-06-04T09:21:54.847Z,11.87
2018-06-04T09:24:23.106Z,8.23
2018-06-04T09:26:51.402Z,8.80
2018-06-04T09:29:19.671Z,8.07
2018-06-04T09:31:48.155Z,8.07
2018-06-04T09:34:16.333Z,9.27
2018-06-04T09:36:44.606Z,10.43
2018-06-04T09:39:14.865Z,8.37
2018-06-04T09:41:43.190Z,10.70
2018-06-04T09:44:11.486Z,8.43
2018-06-04T09:46:39.950Z,7.07
2018-06-04T09:49:08.117Z,6.80
2018-06-04T09:51:36.514Z,6.63
2018-06-04T09:54:04.817Z,8.53
2018-06-04T09:56:33.161Z,8.87
2018-06-04T09:59:02.296Z,9.50
2018-06-04T10:01:30.675Z,8.13
2018-06-04T10:03:58.721Z,8.90
2018-06-04T10:06:27.053Z,7.27
2018-06-04T10:08:55.563Z,8.23
2018-06-04T10:11:23.841Z,7.50
2018-06-04T10:13:52.122Z,9.07
2018-06-04T10:16:21.088Z,7.37
2018-06-04T10:18:49.292Z,8.30
2018-06-04T10:21:24.551Z,7.03
2018-06-04T10:23:53.737Z,6.63
2018-06-04T10:26:21.813Z,7.23
2018-06-04T10:28:56.439Z,6.33
2018-06-04T10:31:31.397Z,6.70
2018-06-04T10:34:11.012Z,6.80
2018-06-04T10:36:46.983Z,9.60
2018-06-04T10:39:15.995Z,6.83
2018-06-04T10:41:45.439Z,7.90
2018-06-04T10:44:14.358Z,8.57
2018-06-04T10:46:43.385Z,6.83
2018-06-04T10:49:22.929Z,5.90
2018-06-04T10:51:57.431Z,6.43
2018-06-04T10:54:26.847Z,6.13
2018-06-04T10:56:55.129Z,6.80
2018-06-04T10:59:24.394Z,6.70
2018-06-04T11:01:54.829Z,8.73
2018-06-04T11:04:23.311Z,5.77
2018-06-04T11:06:51.488Z,6.77
2018-06-04T11:09:19.788Z,6.10
2018-06-04T11:11:48.143Z,6.30
2018-06-04T11:14:16.419Z,5.17
2018-06-04T11:16:44.800Z,4.97
2018-06-04T11:19:12.975Z,5.17
2018-06-04T11:21:42.056Z,5.17
2018-06-04T11:24:10.662Z,6.10
2018-06-04T11:26:38.927Z,7.87
2018-06-04T11:29:07.301Z,5.13
2018-06-04T11:31:35.897Z,5.10
2018-06-04T11:34:04.366Z,4.50
2018-06-04T11:36:32.835Z,6.07
2018-06-04T11:39:02.801Z,6.07
2018-06-04T11:42:17.822Z,5.40
2018-06-04T11:44:51.945Z,5.53
2018-06-04T11:47:20.210Z,5.70
2018-06-04T11:49:48.573Z,5.47
2018-06-04T11:52:17.154Z,5.73
2018-06-04T11:54:45.355Z,5.50
2018-06-04T11:57:13.718Z,5.80
2018-06-04T11:59:42.267Z,6.03
2018-06-04T12:02:10.980Z,5.70
2018-06-04T12:04:40.634Z,7.17
2018-06-04T12:07:09.634Z,6.13
2018-06-04T12:09:38.701Z,7.17
2018-06-04T12:12:09.570Z,7.87
2018-06-04T12:14:38.330Z,6.27
2018-06-04T12:17:06.901Z,5.50
2018-06-04T12:19:36.300Z,6.07
2018-06-04T12:25:31.721Z,5.37
2018-06-04T12:27:59.749Z,5.27
2018-06-04T12:30:27.608Z,5.30
2018-06-04T12:32:55.842Z,5.27
2018-06-04T12:35:24.329Z,5.03
2018-06-04T12:37:52.806Z,5.60
2018-06-04T12:40:21.942Z,5.87
2018-06-04T12:42:50.380Z,5.07
2018-06-04T12:45:18.890Z,6.87
2018-06-04T12:47:47.136Z,5.60
2018-06-04T12:50:15.520Z,5.83
2018-06-04T12:52:43.701Z,5.33
2018-06-04T12:55:11.926Z,6.63
2018-06-04T12:57:40.432Z,4.90
2018-06-04T13:00:08.734Z,4.90
2018-06-04T13:02:37.092Z,5.40
2018-06-04T13:05:05.577Z,6.47
2018-06-04T13:07:34.061Z,4.80
2018-06-04T13:10:02.478Z,4.90
2018-06-04T13:12:30.858Z,4.47
2018-06-04T13:14:59.441Z,4.43
2018-06-04T13:17:27.793Z,11.10
2018-06-04T13:19:56.269Z,9.93
2018-06-04T13:22:24.557Z,6.63
2018-06-04T13:24:52.833Z,5.50
2018-06-04T13:27:21.102Z,8.13
2018-06-04T13:29:49.380Z,5.93
2018-06-04T13:32:18.430Z,7.67
2018-06-04T13:34:46.853Z,10.03
2018-06-04T13:37:15.650Z,6.37
2018-06-04T13:39:44.030Z,9.10
2018-06-04T13:42:12.513Z,7.07
2018-06-04T13:44:40.885Z,7.87
2018-06-04T13:47:09.293Z,9.37
2018-06-04T13:49:37.641Z,8.47
2018-06-04T13:52:06.237Z,7.87
2018-06-04T13:54:34.557Z,8.90
2018-06-04T13:57:03.349Z,8.07
2018-06-04T13:59:31.729Z,8.20
2018-06-04T14:02:00.082Z,9.93
2018-06-04T14:04:29.721Z,8.77
2018-06-04T14:06:58.092Z,6.57
2018-06-04T14:09:26.605Z,7.23
2018-06-04T14:11:55.062Z,7.83
2018-06-04T14:14:23.385Z,8.50
2018-06-04T14:16:51.820Z,7.17
2018-06-04T14:19:20.497Z,7.70
2018-06-04T14:21:48.485Z,7.37
2018-06-04T14:24:16.844Z,6.53
2018-06-04T14:26:45.113Z,7.17
2018-06-04T14:29:13.149Z,6.43
2018-06-04T14:31:41.235Z,11.03
2018-06-04T14:34:09.910Z,6.50
2018-06-04T14:36:38.532Z,6.40
2018-06-04T14:39:08.452Z,6.43
2018-06-04T14:41:37.025Z,9.67
2018-06-04T14:44:05.143Z,6.30
2018-06-04T14:46:33.334Z,5.87
2018-06-04T14:49:01.298Z,7.43
2018-06-04T14:51:30.243Z,6.83
2018-06-04T14:53:58.214Z,6.17
2018-06-04T14:56:26.480Z,6.93
2018-06-04T14:58:54.438Z,9.87
2018-06-04T15:01:22.396Z,7.97
2018-06-04T15:03:50.293Z,6.83
2018-06-04T15:06:18.781Z,7.53
2018-06-04T15:08:47.054Z,7.00
2018-06-04T15:11:15.256Z,7.20
2018-06-04T15:13:43.644Z,6.07
2018-06-04T15:16:12.496Z,7.83
2018-06-04T15:18:40.816Z,6.37
2018-06-04T15:21:09.244Z,5.87
2018-06-04T15:23:37.729Z,5.73
2018-06-04T15:26:06.595Z,6.17
2018-06-04T15:28:34.845Z,6.57
2018-06-04T15:31:03.251Z,10.90
2018-06-04T15:33:31.577Z,5.57
2018-06-04T15:35:59.873Z,4.87
2018-06-04T15:38:28.393Z,8.70
2018-06-04T15:40:56.731Z,7.63
2018-06-04T15:43:24.966Z,6.50
2018-06-04T15:45:53.184Z,8.03
2018-06-04T15:48:25.724Z,4.93
2018-06-04T15:50:54.401Z,8.83
2018-06-04T15:53:22.986Z,6.27
2018-06-04T15:55:51.428Z,42.73
2018-06-04T15:58:20.037Z,12.30
2018-06-04T16:00:48.345Z,10.23
2018-06-04T16:03:16.801Z,6.47
2018-06-04T16:05:45.724Z,5.67
2018-06-04T16:08:13.725Z,8.67
2018-06-04T16:10:41.754Z,9.07
2018-06-04T16:13:10.701Z,6.40
2018-06-04T16:15:38.800Z,9.53
2018-06-04T16:18:06.833Z,11.10
2018-06-04T16:20:34.959Z,7.23
2018-06-04T16:23:02.875Z,7.60
2018-06-04T16:25:30.798Z,8.53
2018-06-04T16:27:58.819Z,7.20
2018-06-04T16:30:26.870Z,10.07
2018-06-04T16:32:55.075Z,12.63
2018-06-04T16:35:43.718Z,7.97
2018-06-04T16:38:11.669Z,7.07
2018-06-04T16:40:40.167Z,10.90
2018-06-04T16:43:08.492Z,8.10
2018-06-04T16:45:37.090Z,7.47
2018-06-04T16:48:05.722Z,6.73
2018-06-04T16:50:34.165Z,7.97
2018-06-04T16:53:02.034Z,8.23
2018-06-04T16:55:30.363Z,12.10
2018-06-04T16:57:58.807Z,10.03
2018-06-04T17:00:26.914Z,8.20
2018-06-04T17:02:54.932Z,7.40
2018-06-04T17:05:22.949Z,7.23
2018-06-04T17:07:51.939Z,7.33
2018-06-04T17:10:19.870Z,8.47
2018-06-04T17:12:47.814Z,7.30
2018-06-04T17:15:15.820Z,7.00
2018-06-04T17:17:43.714Z,7.70
2018-06-04T17:20:11.633Z,15.70
2018-06-04T17:22:39.700Z,8.27
2018-06-04T17:25:07.691Z,9.13
2018-06-04T17:27:35.786Z,8.37
2018-06-04T17:30:03.996Z,6.50
2018-06-04T17:32:31.873Z,7.20
2018-06-04T17:35:00.033Z,6.80
2018-06-04T17:37:27.941Z,6.60
2018-06-04T17:39:55.788Z,6.53
2018-06-04T17:42:23.640Z,7.90
2018-06-04T17:44:51.669Z,6.73
2018-06-04T17:47:19.642Z,8.90
2018-06-04T17:49:47.750Z,7.03
2018-06-04T17:52:15.775Z,7.83
2018-06-04T17:54:43.729Z,9.70
2018-06-04T17:57:12.185Z,11.70
2018-06-04T17:59:40.141Z,8.20
2018-06-04T18:02:08.208Z,9.00
2018-06-04T18:04:36.164Z,8.70
2018-06-04T18:07:04.453Z,8.57
2018-06-04T18:09:32.537Z,9.97
2018-06-04T18:12:00.558Z,11.30
2018-06-04T18:14:28.619Z,10.13
2018-06-04T18:16:56.741Z,12.47
2018-06-04T18:19:24.812Z,9.33
2018-06-04T18:21:53.304Z,9.67
2018-06-04T18:24:21.288Z,11.00
2018-06-04T18:26:49.325Z,10.63
2018-06-04T18:29:18.048Z,11.67
2018-06-04T18:31:46.177Z,11.67
2018-06-04T18:34:14.075Z,12.57
2018-06-04T18:36:42.170Z,9.73
2018-06-04T18:39:10.181Z,12.20
2018-06-04T18:41:38.386Z,10.50
2018-06-04T18:44:07.257Z,11.17
2018-06-04T18:46:35.222Z,9.60
2018-06-04T18:49:03.621Z,5.97
2018-06-04T18:51:31.647Z,9.73
2018-06-04T18:53:59.946Z,7.80
2018-06-04T18:56:27.874Z,7.53
2018-06-04T18:58:56.843Z,8.60
2018-06-04T19:01:24.777Z,11.83
2018-06-04T19:03:52.715Z,11.57
2018-06-04T19:06:20.662Z,10.80
2018-06-04T19:08:48.606Z,9.33
2018-06-04T19:11:16.776Z,9.07
2018-06-04T19:13:44.714Z,12.27
2018-06-04T19:16:12.712Z,11.93
2018-06-04T19:18:40.529Z,11.73
2018-06-04T19:21:08.475Z,9.83
2018-06-04T19:23:36.342Z,10.17
2018-06-04T19:26:04.341Z,10.10
2018-06-04T19:28:32.254Z,9.27
2018-06-04T19:31:00.206Z,11.50
2018-06-04T19:33:28.151Z,11.17
2018-06-04T19:35:56.074Z,8.80
2018-06-04T19:38:23.986Z,8.50
2018-06-04T19:40:51.881Z,9.57
2018-06-04T19:43:19.952Z,9.73
2018-06-04T19:45:47.840Z,9.67
2018-06-04T19:48:15.866Z,10.27
2018-06-04T19:50:43.826Z,9.53
2018-06-04T19:53:11.767Z,9.97
2018-06-04T19:55:39.765Z,10.77
2018-06-04T19:58:07.747Z,11.10
2018-06-04T20:00:35.660Z,10.73
2018-06-04T20:03:03.664Z,9.60
2018-06-04T20:05:31.938Z,10.37
2018-06-04T20:07:59.870Z,10.83
2018-06-04T20:10:27.686Z,10.63
2018-06-04T20:12:55.542Z,10.80
2018-06-04T20:15:23.429Z,11.37
2018-06-04T20:17:51.378Z,11.57
2018-06-04T20:20:19.307Z,10.27
2018-06-04T20:22:47.259Z,11.40
2018-06-04T20:25:15.263Z,11.03
2018-06-04T20:27:43.273Z,11.67
2018-06-04T20:30:11.250Z,11.87
2018-06-04T20:32:39.147Z,12.50
2018-06-04T20:35:07.077Z,11.63
2018-06-04T20:37:35.606Z,12.37
2018-06-04T20:40:03.554Z,12.90
2018-06-04T20:42:32.233Z,13.23
2018-06-04T20:45:00.274Z,12.90
2018-06-04T20:47:28.148Z,14.10
2018-06-04T20:49:56.103Z,14.87
2018-06-04T20:52:24.031Z,15.57
2018-06-04T20:54:51.955Z,17.77
2018-06-04T20:57:19.796Z,11.63
2018-06-04T20:59:48.679Z,12.20
2018-06-04T21:02:16.531Z,12.43
2018-06-04T21:04:44.486Z,13.03
2018-06-04T21:07:13.146Z,13.37
2018-06-04T21:09:41.887Z,11.37
2018-06-04T21:12:09.840Z,11.83
2018-06-04T21:14:38.060Z,14.13
2018-06-04T21:17:06.007Z,11.23
2018-06-04T21:19:34.832Z,12.50
2018-06-04T21:22:02.794Z,11.70
2018-06-04T21:24:30.716Z,11.73
2018-06-04T21:26:58.689Z,11.63
2018-06-04T21:29:26.604Z,12.13
2018-06-04T21:31:55.098Z,12.43
2018-06-04T21:34:23.408Z,12.23
2018-06-04T21:36:51.790Z,13.80
2018-06-04T21:39:19.738Z,12.97
2018-06-04T21:41:49.922Z,13.27
2018-06-04T21:44:18.981Z,15.50
2018-06-04T21:46:46.840Z,13.13
2018-06-04T21:49:18.883Z,14.30
2018-06-04T21:51:47.866Z,13.90
2018-06-04T21:54:16.305Z,13.40
2018-06-04T21:56:44.329Z,14.57
2018-06-04T21:59:12.284Z,14.40
2018-06-04T22:01:40.293Z,14.43
2018-06-04T22:04:08.219Z,14.03
2018-06-04T22:06:36.108Z,16.23
2018-06-04T22:09:06.320Z,13.93
2018-06-04T22:11:34.254Z,14.37
2018-06-04T22:14:02.150Z,13.20
2018-06-04T22:16:30.193Z,12.57
2018-06-04T22:18:58.025Z,11.97
2018-06-04T22:21:25.920Z,11.07
2018-06-04T22:23:53.976Z,11.97
2018-06-04T22:26:21.916Z,15.07
2018-06-04T22:28:49.931Z,12.13
2018-06-04T22:31:17.900Z,11.60
2018-06-04T22:33:45.838Z,11.83
2018-06-04T22:36:13.787Z,10.07
2018-06-04T22:38:41.677Z,10.27
2018-06-04T22:41:09.757Z,10.20
2018-06-04T22:43:37.833Z,10.20
2018-06-04T22:46:05.818Z,11.27
2018-06-04T22:48:33.728Z,10.23
2018-06-04T22:51:01.728Z,10.30
2018-06-04T22:53:29.662Z,9.20
2018-06-04T22:55:57.538Z,9.00
2018-06-04T22:58:25.488Z,9.30
2018-06-04T23:00:53.432Z,11.00
2018-06-04T23:03:21.317Z,8.50
2018-06-04T23:05:49.273Z,9.80
2018-06-04T23:08:17.266Z,7.30
2018-06-04T23:10:45.333Z,8.47
2018-06-04T23:13:13.309Z,7.20
2018-06-04T23:15:41.309Z,7.63
2018-06-04T23:18:09.302Z,7.80
2018-06-04T23:20:37.304Z,9.27
2018-06-04T23:23:05.287Z,7.73
2018-06-04T23:25:33.289Z,6.43
2018-06-04T23:28:02.206Z,6.27
2018-06-04T23:30:30.262Z,8.57
2018-06-04T23:32:58.203Z,8.33
2018-06-04T23:35:26.180Z,8.57
2018-06-04T23:37:54.105Z,6.40
2018-06-04T23:40:22.148Z,10.37
2018-06-04T23:42:50.017Z,7.20
2018-06-04T23:45:17.881Z,6.87
2018-06-04T23:47:45.817Z,7.53
2018-06-04T23:50:13.968Z,6.87
2018-06-04T23:52:41.925Z,6.43
2018-06-04T23:55:09.820Z,7.37
2018-06-04T23:57:37.788Z,8.93
